Kalkaska, Michigan
Current Conditions -  °F | °C
As of 3:17 AM on Thursday 27 Nov 2014 (Local Time) from KACB Reporting Station
Light Snow Light Snow  
Wind Chill: 28°   Ceiling: 2000
Heat Index: 28°   Visibility: 1.5mi
Dew Point: 26°   Wind: 0mph
Humidity: 94%   Direction: NA
Pressure: 30.14"   Gusts: NA
Location:  44.73°N, 85.18°W
Report Text: KACB 270817Z AUTO 00000KT 1 1/2SM -SN OVC020 M02/M03 A3014 RMK AO2 T10251033
Loading
Personal Weather Stations






























Interactive Weather Map New forecast layout! Learn more

10-Day Weather Forecast

Advertisements
Track Severe Weather on mobile